Time;durP1;ratioP1;P1;durP2;ratioP2;P2;SDS_P1;SDS_P2;PMS_P1;PMS_P2;Temp;Humidity;BMP_temperature;BMP_pressure;BME280_temperature;BME280_humidity;BME280_pressure;Samples;Min_cycle;Max_cycle;Signal;HPM_P1;HPM_P2
2023/09/07 00:00:48;;;;;;;8.60;6.43;;;13.60;99.90;;;;;;5095906;28;20403;-63
2023/09/07 00:03:15;;;;;;;11.63;6.32;;;13.60;99.90;;;;;;5114261;28;20099;-64
2023/09/07 00:05:41;;;;;;;7.78;6.18;;;13.50;99.90;;;;;;5114211;28;20023;-64
2023/09/07 00:08:07;;;;;;;9.60;6.05;;;13.50;99.90;;;;;;5096022;28;20019;-63
2023/09/07 00:10:36;;;;;;;13.30;7.43;;;13.40;99.90;;;;;;5096062;28;20514;-64
2023/09/07 00:13:03;;;;;;;8.35;6.65;;;13.40;99.90;;;;;;5114085;28;20023;-63
2023/09/07 00:15:29;;;;;;;9.32;6.43;;;13.40;99.90;;;;;;5095732;28;20363;-63
2023/09/07 00:17:55;;;;;;;9.18;6.85;;;13.40;99.90;;;;;;5114045;28;20095;-63
2023/09/07 00:20:21;;;;;;;7.38;6.53;;;13.30;99.90;;;;;;5095657;28;20024;-63
2023/09/07 00:22:47;;;;;;;8.30;6.68;;;13.40;99.90;;;;;;5113978;28;20031;-64
2023/09/07 00:25:13;;;;;;;7.80;6.35;;;13.40;99.90;;;;;;5114148;28;20019;-63
2023/09/07 00:27:39;;;;;;;7.97;7.18;;;13.40;99.90;;;;;;5113978;28;20071;-64
2023/09/07 00:30:05;;;;;;;8.02;6.40;;;13.40;99.90;;;;;;5113688;28;20059;-64
2023/09/07 00:32:33;;;;;;;7.30;6.22;;;13.30;99.90;;;;;;5113875;28;20026;-64
2023/09/07 00:34:59;;;;;;;11.90;6.93;;;13.30;99.90;;;;;;5113828;28;20011;-63
2023/09/07 00:37:24;;;;;;;14.43;8.40;;;13.30;99.90;;;;;;5113821;28;20161;-63
2023/09/07 00:39:50;;;;;;;9.35;7.05;;;13.30;99.90;;;;;;5113733;28;20546;-63
2023/09/07 00:42:16;;;;;;;12.13;6.97;;;13.30;99.90;;;;;;5113796;28;20395;-63
2023/09/07 00:44:41;;;;;;;11.35;7.10;;;13.20;99.90;;;;;;5113552;28;20024;-64
2023/09/07 00:47:07;;;;;;;12.77;6.88;;;13.20;99.90;;;;;;5114049;28;20073;-64
2023/09/07 00:49:32;;;;;;;9.77;6.88;;;13.20;99.90;;;;;;5113446;28;20115;-64
2023/09/07 00:51:58;;;;;;;10.18;6.80;;;13.20;99.90;;;;;;5114014;28;20050;-64
2023/09/07 00:54:24;;;;;;;10.90;7.50;;;13.20;99.90;;;;;;5099368;28;20341;-64
2023/09/07 00:56:50;;;;;;;11.07;6.95;;;13.10;99.90;;;;;;5099472;28;20020;-64
2023/09/07 00:59:15;;;;;;;7.85;6.75;;;13.10;99.90;;;;;;5099286;28;20035;-64
2023/09/07 01:01:43;;;;;;;11.20;7.22;;;13.10;99.90;;;;;;5117071;28;20066;-63
2023/09/07 01:04:08;;;;;;;7.80;6.75;;;13.00;99.90;;;;;;5117022;28;20414;-64
2023/09/07 01:06:39;;;;;;;9.27;7.18;;;13.00;99.90;;;;;;5098948;28;20016;-64
2023/09/07 01:09:12;;;;;;;11.80;7.40;;;13.00;99.90;;;;;;5117158;28;20031;-64
2023/09/07 01:11:39;;;;;;;11.57;6.63;;;13.00;99.90;;;;;;5117463;28;20389;-64
2023/09/07 01:14:04;;;;;;;8.77;6.97;;;12.90;99.90;;;;;;5117075;28;20543;-64
2023/09/07 01:16:33;;;;;;;14.50;7.80;;;12.90;99.90;;;;;;5098785;28;20110;-64
2023/09/07 01:19:00;;;;;;;;;;;12.90;99.90;;;;;;5099118;28;20019;-64
2023/09/07 01:21:26;;;;;;;10.85;7.07;;;12.90;99.90;;;;;;5116948;28;19914;-64
2023/09/07 01:23:52;;;;;;;10.68;7.07;;;12.80;99.90;;;;;;5098583;28;20024;-64
2023/09/07 01:26:18;;;;;;;8.15;6.82;;;12.80;99.90;;;;;;5116901;28;20020;-64
2023/09/07 01:28:43;;;;;;;7.43;6.63;;;12.70;99.90;;;;;;5098553;28;20468;-63
2023/09/07 01:31:09;;;;;;;9.15;7.15;;;12.80;99.90;;;;;;5098535;28;20020;-64
2023/09/07 01:33:35;;;;;;;9.43;6.78;;;12.80;99.90;;;;;;5116750;28;20464;-64
2023/09/07 01:36:01;;;;;;;9.82;7.05;;;12.70;99.90;;;;;;5098329;28;20489;-64
2023/09/07 01:38:26;;;;;;;8.82;6.45;;;12.80;99.90;;;;;;5116548;28;20024;-64
2023/09/07 01:40:52;;;;;;;11.88;7.32;;;12.80;99.90;;;;;;5116177;28;20032;-64
2023/09/07 01:43:17;;;;;;;10.27;7.35;;;12.70;99.90;;;;;;5098314;28;20077;-64
2023/09/07 01:45:43;;;;;;;11.77;7.15;;;12.70;99.90;;;;;;5098117;28;20425;-63
2023/09/07 01:48:11;;;;;;;8.88;6.93;;;12.70;99.90;;;;;;5116098;28;20038;-64
2023/09/07 01:50:37;;;;;;;10.10;6.22;;;12.70;99.90;;;;;;5115889;28;20027;-64
2023/09/07 01:53:05;;;;;;;7.50;6.50;;;12.70;99.90;;;;;;5116574;28;20024;-64
2023/09/07 01:55:34;;;;;;;8.50;7.00;;;12.70;99.90;;;;;;5098240;28;20055;-64
2023/09/07 01:58:00;;;;;;;8.57;6.55;;;12.70;99.90;;;;;;5116247;28;20023;-64
2023/09/07 02:00:26;;;;;;;8.85;6.93;;;12.60;99.90;;;;;;5097823;28;20034;-64
2023/09/07 02:02:51;;;;;;;11.52;7.03;;;12.60;99.90;;;;;;5097856;28;20484;-64
2023/09/07 02:05:17;;;;;;;8.77;7.28;;;12.60;99.90;;;;;;5115613;28;20032;-64
2023/09/07 02:07:43;;;;;;;8.68;6.65;;;12.60;99.90;;;;;;5116166;28;20020;-64
2023/09/07 02:10:09;;;;;;;7.72;6.93;;;12.50;99.90;;;;;;5116125;28;20031;-64
2023/09/07 02:12:35;;;;;;;9.57;7.15;;;12.50;99.90;;;;;;5116108;28;20039;-64
2023/09/07 02:15:05;;;;;;;8.52;7.47;;;12.50;99.90;;;;;;5115664;28;20020;-64
2023/09/07 02:17:32;;;;;;;8.35;7.05;;;12.40;99.90;;;;;;5097626;28;20023;-64
2023/09/07 02:19:58;;;;;;;7.57;6.70;;;12.40;99.90;;;;;;5115756;28;20239;-64
2023/09/07 02:22:23;;;;;;;9.13;6.55;;;12.50;99.90;;;;;;5097487;28;20563;-64
2023/09/07 02:24:49;;;;;;;11.48;6.95;;;12.40;99.90;;;;;;5115702;28;20357;-64
2023/09/07 02:27:14;;;;;;;11.45;7.82;;;12.40;99.90;;;;;;5115987;28;20188;-64
2023/09/07 02:29:40;;;;;;;9.73;6.75;;;12.40;99.90;;;;;;5115953;28;20102;-64
2023/09/07 02:32:06;;;;;;;12.70;7.38;;;12.40;99.90;;;;;;5097594;28;20069;-64
2023/09/07 02:34:36;;;;;;;9.68;7.35;;;12.40;99.90;;;;;;5097333;28;20027;-64
2023/09/07 02:37:02;;;;;;;;;;;12.40;99.90;;;;;;5115831;28;20443;-64
2023/09/07 02:39:27;;;;;;;9.23;7.25;;;12.40;99.90;;;;;;5097274;28;19908;-64
2023/09/07 02:41:53;;;;;;;11.27;7.68;;;12.30;99.90;;;;;;5097215;28;20476;-64
2023/09/07 02:44:19;;;;;;;10.07;7.18;;;12.30;99.90;;;;;;5115461;28;20413;-64
2023/09/07 02:46:44;;;;;;;9.63;7.28;;;12.30;99.90;;;;;;5097212;28;20022;-64
2023/09/07 02:49:10;;;;;;;11.00;7.90;;;12.30;99.90;;;;;;5115387;28;20106;-64
2023/09/07 02:51:36;;;;;;;10.00;7.03;;;12.30;99.90;;;;;;5096703;28;20491;-63
2023/09/07 02:54:03;;;;;;;9.77;7.07;;;12.30;99.90;;;;;;5115262;28;20102;-64
2023/09/07 02:56:28;;;;;;;9.82;6.82;;;12.30;99.90;;;;;;5097011;28;20432;-64
2023/09/07 02:58:54;;;;;;;9.93;6.82;;;12.30;99.90;;;;;;5115146;28;20051;-64
2023/09/07 03:01:20;;;;;;;8.80;6.97;;;12.30;99.90;;;;;;5114880;28;20368;-64
2023/09/07 03:03:46;;;;;;;9.90;6.78;;;12.30;99.90;;;;;;5097154;28;20115;-64
2023/09/07 03:06:13;;;;;;;10.48;7.75;;;12.30;99.90;;;;;;5115215;28;20118;-64
2023/09/07 03:08:45;;;;;;;9.35;6.97;;;12.30;99.90;;;;;;5096662;28;20441;-64
2023/09/07 03:11:11;;;;;;;10.68;7.50;;;12.20;99.90;;;;;;5114928;28;20409;-65
2023/09/07 03:13:38;;;;;;;12.35;7.47;;;12.30;99.90;;;;;;5099068;28;20054;-64
2023/09/07 03:16:04;;;;;;;9.10;6.90;;;12.30;99.90;;;;;;5096027;28;20084;-64
2023/09/07 03:18:30;;;;;;;12.10;7.45;;;12.30;99.90;;;;;;5115424;28;20464;-64
2023/09/07 03:20:59;;;;;;;13.32;7.43;;;12.30;99.90;;;;;;5116042;28;20055;-68
2023/09/07 03:23:25;;;;;;;10.67;7.30;;;12.20;99.90;;;;;;5114894;28;20027;-64
2023/09/07 03:25:50;;;;;;;11.10;7.47;;;12.30;99.90;;;;;;5114769;28;20020;-64
2023/09/07 03:28:16;;;;;;;8.60;6.60;;;12.20;99.90;;;;;;5114907;28;20023;-64
2023/09/07 03:30:41;;;;;;;11.48;7.00;;;12.20;99.90;;;;;;5114871;28;20030;-64
2023/09/07 03:33:07;;;;;;;10.75;6.30;;;12.10;99.90;;;;;;5095998;28;20027;-64
2023/09/07 03:35:33;;;;;;;11.80;6.90;;;12.10;99.90;;;;;;5114576;28;20027;-64
2023/09/07 03:37:59;;;;;;;8.30;6.65;;;;;;;;;;5114895;28;20016;-64
2023/09/07 03:40:25;;;;;;;10.35;7.60;;;12.10;99.90;;;;;;5114302;28;20099;-64
2023/09/07 03:42:50;;;;;;;11.68;6.78;;;12.10;99.90;;;;;;5096195;28;20051;-64
2023/09/07 03:45:16;;;;;;;9.85;6.82;;;12.20;99.90;;;;;;5096617;28;20020;-64
2023/09/07 03:47:43;;;;;;;10.70;6.60;;;12.20;99.90;;;;;;5114369;28;20012;-64
2023/09/07 03:50:08;;;;;;;11.40;7.63;;;12.10;99.90;;;;;;5096216;28;20481;-64
2023/09/07 03:52:34;;;;;;;16.13;7.60;;;12.10;99.90;;;;;;5114948;28;20069;-64
2023/09/07 03:55:00;;;;;;;12.32;7.70;;;12.10;99.90;;;;;;5096178;28;20042;-64
2023/09/07 03:57:27;;;;;;;8.73;7.05;;;12.10;99.90;;;;;;5114612;28;20027;-64
2023/09/07 03:59:53;;;;;;;9.32;7.20;;;12.00;99.90;;;;;;5114323;28;20395;-64
2023/09/07 04:02:19;;;;;;;10.20;7.45;;;12.00;99.90;;;;;;5095965;28;20629;-64
2023/09/07 04:04:49;;;;;;;13.07;7.22;;;12.00;99.90;;;;;;5114343;28;20027;-64
2023/09/07 04:07:15;;;;;;;9.20;7.15;;;12.00;99.90;;;;;;5114521;28;20157;-64
2023/09/07 04:09:40;;;;;;;13.55;7.93;;;11.90;99.90;;;;;;5114377;28;20055;-64
2023/09/07 04:12:06;;;;;;;9.45;7.45;;;11.90;99.90;;;;;;5114340;28;20020;-64
2023/09/07 04:14:32;;;;;;;11.15;7.60;;;11.90;99.90;;;;;;5114542;28;20095;-64
2023/09/07 04:16:58;;;;;;;11.65;7.47;;;11.90;99.90;;;;;;5115399;28;20054;-68
2023/09/07 04:19:24;;;;;;;8.10;6.53;;;12.00;99.90;;;;;;5120892;28;20028;-67
2023/09/07 04:21:50;;;;;;;11.68;7.10;;;12.00;99.90;;;;;;5119293;28;20028;-66
2023/09/07 04:24:15;;;;;;;9.75;7.35;;;12.00;99.90;;;;;;5101030;28;20023;-64
2023/09/07 04:26:41;;;;;;;12.10;7.10;;;12.00;99.90;;;;;;5117992;28;20510;-64
2023/09/07 04:29:07;;;;;;;11.55;7.43;;;12.00;99.90;;;;;;5099939;28;20027;-64
2023/09/07 04:31:33;;;;;;;13.85;7.22;;;12.00;99.90;;;;;;5117946;28;20024;-64
2023/09/07 04:33:59;;;;;;;11.82;7.28;;;11.90;99.90;;;;;;5117797;28;20019;-64
2023/09/07 04:36:25;;;;;;;12.02;7.22;;;12.00;99.90;;;;;;5118215;28;20024;-63
2023/09/07 04:38:51;;;;;;;10.65;7.82;;;12.00;99.90;;;;;;5117690;28;20342;-64
2023/09/07 04:41:16;;;;;;;8.88;7.43;;;12.00;99.90;;;;;;5099364;28;20031;-64
2023/09/07 04:43:43;;;;;;;9.52;7.10;;;12.00;99.90;;;;;;5117651;28;20027;-64
2023/09/07 04:46:09;;;;;;;9.93;7.35;;;12.00;99.90;;;;;;5117369;28;20109;-64
2023/09/07 04:48:35;;;;;;;13.90;7.38;;;12.00;99.90;;;;;;5117228;28;20024;-64
2023/09/07 04:51:12;;;;;;;10.60;7.22;;;12.10;99.90;;;;;;5117120;28;20044;-64
2023/09/07 04:53:39;;;;;;;13.23;8.00;;;12.10;99.90;;;;;;5117296;28;20363;-63
2023/09/07 04:56:06;;;;;;;7.25;6.40;;;12.10;99.90;;;;;;5117490;28;20023;-63
2023/09/07 04:58:32;;;;;;;15.30;6.50;;;12.10;99.90;;;;;;5117404;28;20072;-64
2023/09/07 05:01:04;;;;;;;10.05;7.07;;;12.10;99.90;;;;;;5117038;28;20469;-64
2023/09/07 05:03:30;;;;;;;9.50;7.30;;;12.20;99.90;;;;;;5098941;28;20024;-63
2023/09/07 05:05:56;;;;;;;10.32;7.03;;;12.20;99.90;;;;;;5116990;28;20525;-63
2023/09/07 05:08:24;;;;;;;11.73;7.47;;;12.20;99.90;;;;;;5117520;28;20028;-63
2023/09/07 05:10:59;;;;;;;9.15;7.68;;;12.30;99.90;;;;;;5117115;28;20047;-63
2023/09/07 05:13:25;;;;;;;13.15;7.22;;;12.30;99.90;;;;;;5098680;28;20088;-63
2023/09/07 05:15:51;;;;;;;11.00;6.60;;;12.30;99.90;;;;;;5098823;28;20363;-64
2023/09/07 05:18:18;;;;;;;9.07;7.05;;;12.40;99.90;;;;;;5116798;28;20027;-63
2023/09/07 05:20:44;;;;;;;12.77;7.95;;;12.40;99.90;;;;;;5116727;28;20106;-64
2023/09/07 05:23:12;;;;;;;12.73;6.88;;;12.40;99.90;;;;;;5116774;28;20043;-64
2023/09/07 05:25:50;;;;;;;10.27;7.18;;;12.60;99.90;;;;;;5116674;28;20012;-64
2023/09/07 05:28:16;;;;;;;8.75;6.95;;;12.70;99.90;;;;;;5098343;28;20028;-64
2023/09/07 05:30:42;;;;;;;13.40;6.55;;;12.90;99.90;;;;;;5116167;28;20504;-63
2023/09/07 05:33:13;;;;;;;10.93;6.25;;;13.10;99.90;;;;;;5116482;28;20031;-64
2023/09/07 05:35:39;;;;;;;8.93;6.65;;;13.30;99.90;;;;;;5116227;28;20457;-64
2023/09/07 05:38:05;;;;;;;13.55;6.03;;;13.50;99.90;;;;;;5097868;28;20016;-64
2023/09/07 05:40:39;;;;;;;9.15;5.93;;;13.70;99.90;;;;;;5114965;28;20452;-63
2023/09/07 05:43:05;;;;;;;9.85;6.25;;;14.00;99.90;;;;;;5097971;28;20461;-64
2023/09/07 05:45:34;;;;;;;10.88;5.80;;;14.10;99.90;;;;;;5116033;28;20342;-63
2023/09/07 05:48:00;;;;;;;14.45;6.15;;;14.40;99.90;;;;;;5116223;28;20061;-63
2023/09/07 05:50:26;;;;;;;10.98;6.32;;;14.70;99.90;;;;;;5116253;28;20062;-63
2023/09/07 05:52:51;;;;;;;18.17;7.15;;;15.00;99.90;;;;;;5116270;28;20027;-64
2023/09/07 05:55:17;;;;;;;8.65;5.13;;;15.30;99.90;;;;;;5097913;28;20485;-64
2023/09/07 05:57:43;;;;;;;9.55;5.88;;;15.50;99.90;;;;;;5116147;28;20020;-63
2023/09/07 06:00:09;;;;;;;10.13;5.70;;;15.70;99.90;;;;;;5097694;28;20024;-64
2023/09/07 06:02:35;;;;;;;13.13;5.85;;;16.10;99.90;;;;;;5097688;28;20023;-64
2023/09/07 06:05:01;;;;;;;9.30;5.32;;;16.40;99.90;;;;;;5097590;28;20023;-64
2023/09/07 06:07:27;;;;;;;6.88;4.78;;;16.80;99.90;;;;;;5097475;28;20364;-64
2023/09/07 06:09:52;;;;;;;9.55;6.43;;;17.10;99.90;;;;;;5097781;28;20023;-64
2023/09/07 06:12:19;;;;;;;10.02;4.88;;;17.50;99.90;;;;;;5115956;28;20023;-63
2023/09/07 06:14:46;;;;;;;6.00;4.78;;;17.90;99.90;;;;;;5115869;28;20046;-64
2023/09/07 06:17:12;;;;;;;6.75;4.53;;;18.30;99.90;;;;;;5115734;28;20016;-64
2023/09/07 06:19:37;;;;;;;5.20;4.70;;;18.70;99.90;;;;;;5097668;28;20030;-64
2023/09/07 06:22:03;;;;;;;7.63;4.32;;;19.20;99.90;;;;;;5115649;28;20028;-64
2023/09/07 06:24:29;;;;;;;10.23;4.63;;;19.50;99.90;;;;;;5097487;28;20110;-64
2023/09/07 06:26:55;;;;;;;7.40;5.15;;;19.80;99.90;;;;;;5115645;28;20431;-64
2023/09/07 06:29:20;;;;;;;11.73;4.57;;;20.10;99.90;;;;;;5097355;28;20422;-64
2023/09/07 06:31:46;;;;;;;9.20;4.93;;;20.50;99.90;;;;;;5115554;28;20066;-64
2023/09/07 06:34:11;;;;;;;9.13;4.78;;;20.90;99.90;;;;;;5115823;28;20448;-64
2023/09/07 06:36:37;;;;;;;6.82;3.95;;;21.30;99.90;;;;;;5115763;28;20027;-64
2023/09/07 06:39:04;;;;;;;8.77;4.68;;;21.60;99.90;;;;;;5115224;28;20023;-65
2023/09/07 06:41:30;;;;;;;6.03;4.85;;;21.90;99.90;;;;;;5115547;28;20065;-62
2023/09/07 06:43:56;;;;;;;11.05;5.25;;;22.40;99.90;;;;;;5115709;28;20028;-64
2023/09/07 06:46:21;;;;;;;9.35;4.53;;;22.60;99.90;;;;;;5098515;28;20022;-64
2023/09/07 06:48:48;;;;;;;6.88;4.03;;;22.80;99.90;;;;;;5118712;28;20474;-64
2023/09/07 06:51:13;;;;;;;7.95;4.57;;;22.80;99.90;;;;;;5100913;28;20248;-62
2023/09/07 06:53:40;;;;;;;10.55;5.03;;;23.20;99.70;;;;;;5120854;28;20047;-65
2023/09/07 06:56:06;;;;;;;7.15;4.43;;;23.50;98.10;;;;;;5119609;28;20441;-62
2023/09/07 06:58:34;;;;;;;7.63;4.70;;;24.00;97.00;;;;;;5117001;28;20020;-62
2023/09/07 07:01:00;;;;;;;11.57;4.35;;;24.50;95.20;;;;;;5115516;28;20445;-62
2023/09/07 07:03:28;;;;;;;6.32;4.40;;;24.80;95.20;;;;;;5115351;28;20049;-62
2023/09/07 07:05:54;;;;;;;10.45;4.20;;;24.70;94.90;;;;;;5115333;28;20059;-61
2023/09/07 07:08:19;;;;;;;14.25;4.60;;;24.70;93.60;;;;;;5096994;28;20058;-62
2023/09/07 07:10:45;;;;;;;9.45;4.63;;;24.80;93.80;;;;;;5114993;28;20047;-62
2023/09/07 07:13:11;;;;;;;9.32;4.75;;;25.10;91.90;;;;;;5114833;28;20065;-62
2023/09/07 07:15:37;;;;;;;12.13;4.25;;;25.30;91.00;;;;;;5115400;28;20077;-61
2023/09/07 07:18:08;;;;;;;5.05;4.25;;;25.50;90.60;;;;;;5096721;28;20106;-62
2023/09/07 07:20:34;;;;;;;7.00;4.22;;;25.60;90.30;;;;;;5097386;28;20047;-61
2023/09/07 07:23:00;;;;;;;8.55;4.88;;;25.80;89.40;;;;;;5114560;28;20124;-64
2023/09/07 07:25:25;;;;;;;8.07;4.13;;;26.00;86.60;;;;;;5114426;28;20110;-62
2023/09/07 07:27:51;;;;;;;6.72;4.82;;;26.30;85.50;;;;;;5114360;28;20098;-62
2023/09/07 07:30:17;;;;;;;7.07;5.00;;;26.50;83.80;;;;;;5114665;28;20106;-62
2023/09/07 07:32:42;;;;;;;6.65;4.20;;;26.50;81.90;;;;;;5096523;28;20024;-62
2023/09/07 07:35:08;;;;;;;9.23;4.60;;;26.70;81.10;;;;;;5096273;28;20464;-62
2023/09/07 07:37:34;;;;;;;6.15;4.60;;;26.60;80.60;;;;;;5114232;28;20095;-62
2023/09/07 07:39:59;;;;;;;8.57;4.57;;;26.80;79.90;;;;;;5096239;28;20465;-62
2023/09/07 07:42:25;;;;;;;9.73;4.75;;;26.70;79.70;;;;;;5114718;28;20073;-62
2023/09/07 07:44:50;;;;;;;7.63;4.53;;;26.80;78.70;;;;;;5095854;28;20019;-62
2023/09/07 07:47:16;;;;;;;7.32;4.22;;;27.30;77.00;;;;;;5115248;28;20024;-64
2023/09/07 07:49:42;;;;;;;9.15;4.20;;;27.60;75.60;;;;;;5115258;28;20027;-62
2023/09/07 07:52:07;;;;;;;12.60;4.35;;;27.80;74.80;;;;;;5116134;28;20153;-65
2023/09/07 07:54:34;;;;;;;8.70;4.32;;;28.10;73.50;;;;;;5098213;28;20065;-62
2023/09/07 07:56:59;;;;;;;5.30;3.97;;;28.20;72.00;;;;;;5114727;28;20016;-63
2023/09/07 07:59:25;;;;;;;7.35;4.35;;;28.40;71.30;;;;;;5114034;28;20058;-62
2023/09/07 08:01:51;;;;;;;8.05;4.10;;;28.50;70.10;;;;;;5114479;28;20028;-64
2023/09/07 08:04:16;;;;;;;5.85;4.18;;;28.60;69.30;;;;;;5100625;28;20118;-62
2023/09/07 08:06:42;;;;;;;6.85;4.00;;;28.70;68.70;;;;;;5118245;28;20024;-64
2023/09/07 08:09:08;;;;;;;7.70;3.80;;;28.70;68.30;;;;;;5099850;28;20066;-62
2023/09/07 08:11:34;;;;;;;5.88;4.25;;;28.90;67.10;;;;;;5118627;28;20467;-64
2023/09/07 08:13:59;;;;;;;6.22;3.80;;;29.00;66.80;;;;;;5118260;28;20024;-62
2023/09/07 08:16:25;;;;;;;8.15;3.97;;;28.40;66.80;;;;;;5118190;28;20095;-62
2023/09/07 08:18:51;;;;;;;6.45;4.00;;;28.70;66.60;;;;;;5118157;28;20359;-62
2023/09/07 08:21:17;;;;;;;6.75;3.88;;;29.20;65.60;;;;;;5118404;28;20030;-62
2023/09/07 08:23:43;;;;;;;8.07;4.10;;;29.30;65.00;;;;;;5118618;28;20425;-62
2023/09/07 08:26:09;;;;;;;5.30;3.95;;;29.30;64.40;;;;;;5099687;28;20031;-64
2023/09/07 08:28:35;;;;;;;8.20;3.78;;;29.40;64.30;;;;;;5118009;28;20020;-62
2023/09/07 08:31:01;;;;;;;5.47;3.95;;;29.70;63.60;;;;;;5118423;28;20084;-62
2023/09/07 08:33:30;;;;;;;4.35;3.95;;;29.80;63.50;;;;;;5118224;28;20035;-62
2023/09/07 08:35:57;;;;;;;6.10;3.78;;;29.70;63.00;;;;;;5118359;28;20093;-63
2023/09/07 08:38:26;;;;;;;6.35;4.00;;;30.30;61.60;;;;;;5118045;28;20396;-63
2023/09/07 08:40:54;;;;;;;7.47;3.28;;;30.80;60.60;;;;;;5099322;28;20024;-65
2023/09/07 08:43:20;;;;;;;;;;;30.60;59.70;;;;;;5100020;28;20345;-62
2023/09/07 08:45:51;;;;;;;9.25;4.30;;;30.60;59.70;;;;;;5117425;28;20355;-64
2023/09/07 08:48:18;;;;;;;4.22;3.15;;;30.90;59.00;;;;;;5117787;28;20023;-62
2023/09/07 08:50:49;;;;;;;5.68;3.05;;;31.00;57.40;;;;;;5098904;28;20027;-64
2023/09/07 08:53:17;;;;;;;4.45;2.85;;;31.20;57.10;;;;;;5099755;28;20015;-64
2023/09/07 08:55:43;;;;;;;7.13;3.20;;;31.60;56.80;;;;;;5098851;28;20016;-62
2023/09/07 08:58:09;;;;;;;5.32;3.15;;;31.60;56.30;;;;;;5099181;28;20020;-62
2023/09/07 09:00:36;;;;;;;8.82;3.88;;;32.20;54.60;;;;;;5117070;28;20350;-65
2023/09/07 09:03:03;;;;;;;6.75;3.47;;;32.30;54.10;;;;;;5099027;28;20028;-65
2023/09/07 09:05:30;;;;;;;3.58;3.28;;;32.60;54.30;;;;;;5099781;28;20368;-65
2023/09/07 09:08:05;;;;;;;4.18;3.50;;;32.80;52.70;;;;;;5098931;28;20028;-65
2023/09/07 09:10:31;;;;;;;6.45;3.17;;;32.70;52.90;;;;;;5117226;28;20027;-63
2023/09/07 09:12:59;;;;;;;9.05;3.70;;;32.70;52.20;;;;;;5117215;28;20035;-66
2023/09/07 09:15:26;;;;;;;4.53;3.22;;;32.60;52.00;;;;;;5097454;28;20020;-65
2023/09/07 09:17:53;;;;;;;5.47;3.38;;;32.90;51.40;;;;;;5116797;28;20442;-64
2023/09/07 09:20:28;;;;;;;4.97;2.80;;;33.10;51.10;;;;;;5116902;28;20115;-65
2023/09/07 09:22:56;;;;;;;6.50;2.92;;;33.40;50.30;;;;;;5117109;28;20073;-64
2023/09/07 09:25:22;;;;;;;3.83;2.72;;;33.60;49.90;;;;;;5098755;28;20058;-65
2023/09/07 09:27:47;;;;;;;9.43;3.22;;;33.40;50.00;;;;;;5116531;28;20077;-65
2023/09/07 09:30:16;;;;;;;4.90;2.65;;;33.50;49.80;;;;;;5116776;28;20027;-66
2023/09/07 09:32:46;;;;;;;7.47;2.88;;;34.20;48.90;;;;;;5118693;28;20072;-66
2023/09/07 09:35:12;;;;;;;3.45;3.13;;;34.60;47.80;;;;;;5124126;28;20060;-69
2023/09/07 09:37:51;;;;;;;5.20;2.78;;;34.80;46.90;;;;;;5104993;28;20122;-66
2023/09/07 09:40:16;;;;;;;7.25;3.03;;;34.60;47.20;;;;;;5105652;28;20038;-68
2023/09/07 09:42:43;;;;;;;7.30;3.00;;;35.10;46.70;;;;;;5122510;28;20019;-65
2023/09/07 09:45:10;;;;;;;5.35;3.45;;;35.50;45.90;;;;;;5119900;28;20015;-66
2023/09/07 09:47:41;;;;;;;3.17;2.63;;;35.00;44.90;;;;;;5104437;28;20440;-58
2023/09/07 09:50:09;;;;;;;6.40;2.67;;;34.70;46.50;;;;;;5116583;28;20051;-58
2023/09/07 09:52:36;;;;;;;3.38;2.65;;;34.80;46.90;;;;;;5116593;28;20040;-59
2023/09/07 09:55:07;;;;;;;2.80;2.30;;;34.90;46.10;;;;;;5115969;28;20038;-59
2023/09/07 09:57:37;;;;;;;3.55;2.67;;;34.80;46.80;;;;;;5116225;28;20022;-58
2023/09/07 10:00:19;;;;;;;4.93;2.83;;;35.00;46.70;;;;;;5115917;28;20521;-58
2023/09/07 10:03:02;;;;;;;5.07;2.67;;;34.80;45.40;;;;;;5116275;28;20094;-58
2023/09/07 10:05:29;;;;;;;3.70;2.70;;;34.70;47.70;;;;;;5116142;28;20045;-58
2023/09/07 10:08:02;;;;;;;4.80;2.80;;;34.50;45.50;;;;;;5097596;28;20017;-59
2023/09/07 10:10:35;;;;;;;4.30;2.60;;;33.90;45.60;;;;;;5097487;28;20045;-59
2023/09/07 10:13:01;;;;;;;4.82;2.60;;;33.90;46.30;;;;;;5098197;28;20054;-57
2023/09/07 10:15:28;;;;;;;4.60;2.47;;;33.10;45.30;;;;;;5097583;28;20023;-59
2023/09/07 10:18:07;;;;;;;5.27;2.23;;;33.30;47.30;;;;;;5115976;28;20016;-58
2023/09/07 10:20:56;;;;;;;6.43;3.00;;;34.00;47.30;;;;;;5097500;28;20861;-59
2023/09/07 10:23:42;;;;;;;3.97;2.70;;;34.70;45.70;;;;;;5097962;28;20019;-57
2023/09/07 10:26:16;;;;;;;5.18;2.28;;;33.90;44.50;;;;;;5114805;28;20081;-58
2023/09/07 10:28:43;;;;;;;10.80;2.80;;;33.80;45.30;;;;;;5097052;28;20091;-58
2023/09/07 10:31:17;;;;;;;5.23;2.70;;;34.00;46.00;;;;;;5115482;28;20053;-59
2023/09/07 10:33:44;;;;;;;4.93;2.58;;;34.50;46.10;;;;;;5115482;28;20262;-59
2023/09/07 10:36:24;;;;;;;3.20;2.42;;;34.20;44.00;;;;;;5115418;28;20401;-59
2023/09/07 10:38:52;;;;;;;7.78;2.90;;;33.80;44.80;;;;;;5097328;28;20103;-59
2023/09/07 10:41:19;;;;;;;6.65;2.40;;;33.80;44.20;;;;;;5097226;28;20023;-59
2023/09/07 10:43:54;;;;;;;5.53;2.60;;;33.90;45.80;;;;;;5097709;28;20024;-57
2023/09/07 10:46:21;;;;;;;3.97;2.35;;;33.40;45.70;;;;;;5097043;28;20091;-58
2023/09/07 10:48:56;;;;;;;3.25;2.55;;;33.60;45.60;;;;;;5115178;28;20020;-60
2023/09/07 10:51:21;;;;;;;8.05;2.33;;;33.40;44.60;;;;;;5096292;28;20047;-60
2023/09/07 10:53:48;;;;;;;4.10;2.30;;;33.60;46.00;;;;;;5096784;28;20020;-60
2023/09/07 10:56:14;;;;;;;3.22;2.30;;;34.10;45.60;;;;;;5115161;28;20395;-59
2023/09/07 10:58:41;;;;;;;3.35;2.28;;;34.70;44.10;;;;;;5115181;28;20024;-58
2023/09/07 11:01:11;;;;;;;3.30;2.03;;;34.50;42.90;;;;;;5096271;28;20050;-59
2023/09/07 11:03:38;;;;;;;4.78;2.40;;;34.50;44.80;;;;;;5114502;28;20046;-59
2023/09/07 11:06:10;;;;;;;5.45;2.13;;;34.10;43.20;;;;;;5114810;28;20023;-57
2023/09/07 11:08:36;;;;;;;4.47;2.10;;;33.90;43.50;;;;;;5114825;28;20019;-58
2023/09/07 11:11:05;;;;;;;3.83;2.70;;;33.20;43.50;;;;;;5114816;28;20038;-58
2023/09/07 11:13:31;;;;;;;3.92;2.40;;;33.10;43.80;;;;;;5096344;28;20019;-58
2023/09/07 11:15:58;;;;;;;3.10;2.60;;;33.50;44.90;;;;;;5114907;28;20020;-59
2023/09/07 11:18:25;;;;;;;4.22;2.53;;;34.00;42.60;;;;;;5096333;28;20463;-59
2023/09/07 11:20:52;;;;;;;4.90;2.30;;;34.10;42.00;;;;;;5096340;28;20030;-59
2023/09/07 11:23:20;;;;;;;6.60;2.65;;;34.20;42.40;;;;;;5114572;28;20027;-59
2023/09/07 11:25:47;;;;;;;4.32;2.25;;;34.40;43.00;;;;;;5114683;28;20051;-59
2023/09/07 11:28:15;;;;;;;2.70;2.35;;;34.70;42.80;;;;;;5114487;28;20065;-58
2023/09/07 11:30:54;;;;;;;2.58;2.30;;;34.90;42.10;;;;;;5113869;28;20042;-59
2023/09/07 11:33:24;;;;;;;2.53;2.15;;;34.50;41.40;;;;;;5114474;28;20031;-59
2023/09/07 11:35:50;;;;;;;3.97;2.38;;;34.20;41.70;;;;;;5114019;28;20153;-58
2023/09/07 11:38:17;;;;;;;2.88;2.40;;;34.10;43.30;;;;;;5113209;28;20054;-59
2023/09/07 11:40:44;;;;;;;3.13;2.03;;;34.50;42.90;;;;;;5114019;28;20472;-59
2023/09/07 11:43:14;;;;;;;4.30;2.25;;;34.70;41.50;;;;;;5096085;28;20523;-59
2023/09/07 11:45:40;;;;;;;2.55;2.30;;;34.50;40.90;;;;;;5114159;28;20452;-57
2023/09/07 11:48:08;;;;;;;5.32;2.20;;;34.50;40.90;;;;;;5095514;28;20034;-57
2023/09/07 11:50:34;;;;;;;;;;;34.60;41.40;;;;;;5114442;28;20068;-57
2023/09/07 11:53:00;;;;;;;3.10;2.35;;;35.00;41.70;;;;;;5095910;28;19900;-58
2023/09/07 11:55:26;;;;;;;4.97;2.50;;;34.00;40.70;;;;;;5113678;28;20024;-59
2023/09/07 11:57:52;;;;;;;3.17;2.80;;;33.80;41.60;;;;;;5095539;28;20372;-59
2023/09/07 12:00:18;;;;;;;2.60;2.40;;;34.20;40.40;;;;;;5114045;28;20035;-58
2023/09/07 12:02:43;;;;;;;5.00;2.60;;;34.00;40.20;;;;;;5095806;28;20073;-57
2023/09/07 12:05:09;;;;;;;3.80;2.47;;;33.60;40.20;;;;;;5096071;28;20092;-57
2023/09/07 12:07:38;;;;;;;5.75;2.30;;;33.20;41.50;;;;;;5095804;28;20031;-57
2023/09/07 12:10:04;;;;;;;4.60;2.17;;;33.10;42.20;;;;;;5113662;28;20368;-58
2023/09/07 12:12:30;;;;;;;4.38;2.28;;;33.40;41.00;;;;;;5113920;28;20120;-58
2023/09/07 12:14:56;;;;;;;6.85;2.42;;;33.30;40.80;;;;;;5113895;28;20095;-57
2023/09/07 12:17:24;;;;;;;3.28;2.50;;;33.30;41.20;;;;;;5114008;28;20034;-57
2023/09/07 12:19:50;;;;;;;5.25;2.15;;;33.60;41.30;;;;;;5114411;28;20024;-57
2023/09/07 12:22:16;;;;;;;2.42;2.28;;;33.60;41.30;;;;;;5114001;28;20028;-58
2023/09/07 12:24:41;;;;;;;3.22;2.25;;;34.10;42.10;;;;;;5113735;28;20027;-57
2023/09/07 12:27:07;;;;;;;3.00;2.47;;;34.40;40.70;;;;;;5114151;28;20011;-58
2023/09/07 12:29:33;;;;;;;2.75;2.35;;;34.50;40.30;;;;;;5096455;28;20020;-59
2023/09/07 12:31:58;;;;;;;5.28;2.63;;;34.10;41.10;;;;;;5113570;28;20513;-59
2023/09/07 12:34:24;;;;;;;2.78;2.10;;;33.60;41.50;;;;;;5113849;28;20031;-60
2023/09/07 12:36:50;;;;;;;3.70;2.30;;;34.00;41.90;;;;;;5113946;28;20073;-59
2023/09/07 12:39:17;;;;;;;3.13;2.20;;;34.80;42.70;;;;;;5113459;28;20024;-59
2023/09/07 12:41:42;;;;;;;3.25;2.20;;;34.80;40.30;;;;;;5095620;28;20023;-59
2023/09/07 12:44:08;;;;;;;3.33;2.50;;;34.40;41.30;;;;;;5114102;28;20118;-59